Snow/Ice From: 16-12-2017 16:00 Until: 17-12-2017 16:00 warning for: Snow/Ice Level: Yellow info button

Although rather usual in this region, locally or potentially dangerous phenomena are expected. (such as local winds, summer thunderstorms, rising streams or high waves) Be aware and pay attention to the latest weather updates, especially if you carry out activities exposed to weather or close to a stream or shoreline. 


Meteo18 Weather Cam more information Meteo18 Weather Cam


Thunder radar more information blitzortung!


warning for Snow/Ice more information rain snow radar


Visit our other weather sites:

Template documentation
and downloads

And another site



Weather Underground History page Text

Daily Summary for January 27, 2016 Units:  Metric    English   Both
« Previous Day
Next Day »
Daily Weekly Monthly Yearly Custom
  High: Low: Average:
Temperature: 12.2 °C 5.3 °C 8.8 °C
Dew Point: 10.8 °C 5.0 °C 8 °C
Humidity: 99 % 86 % 95 %
Wind Speed: 8.0 km/h 0.0 km/h 1.5 km/h
Wind Gust: 12.9 km/h - -
Wind:- - SW
Pressure: 1027.7 hPa 1021.6 hPa -
Precipitation: 0.3 mm    
Historical Graphs
 
 
Tabular Data for January 27, 2016
Time Temperature Dew Point Pressure Wind Wind Speed Wind Gust Humidity Rainfall Rate (Hourly)
00:02 7.4 °C 7.0 °C 1027.7 hPa SW 4.8 km/h 6.4 km/h 97 % 0.0 mm
00:07 7.4 °C 7.0 °C 1027.7 hPa SSW 1.6 km/h 9.7 km/h 97 % 0.0 mm
00:12 7.4 °C 6.8 °C 1027.7 hPa WSW 1.6 km/h 9.7 km/h 96 % 0.0 mm
00:17 7.4 °C 6.8 °C 1027.7 hPa SW 3.2 km/h 9.7 km/h 96 % 0.0 mm
00:22 7.4 °C 6.8 °C 1027.7 hPa WSW 1.6 km/h 8.0 km/h 96 % 0.0 mm
00:27 7.3 °C 6.7 °C 1027.7 hPa SW 1.6 km/h 8.0 km/h 96 % 0.0 mm
00:32 7.3 °C 6.7 °C 1027.7 hPa Calm   8.0 km/h 96 % 0.0 mm
00:42 7.2 °C 6.8 °C 1027.7 hPa Calm   6.4 km/h 97 % 0.3 mm
00:47 7.1 °C 6.7 °C 1027.7 hPa Calm   8.0 km/h 97 % 0.3 mm
00:52 7.1 °C 6.7 °C 1027.7 hPa WSW 1.6 km/h 8.0 km/h 97 % 0.3 mm
00:57 7.0 °C 6.6 °C 1027.3 hPa WSW 1.6 km/h 3.2 km/h 97 % 0.3 mm
01:02 6.8 °C 6.2 °C 1027.3 hPa WSW 3.2 km/h 3.2 km/h 96 % 0.3 mm
01:07 6.7 °C 6.1 °C 1027.3 hPa SW 1.6 km/h 4.8 km/h 96 % 0.3 mm
01:12 6.5 °C 5.9 °C 1027.3 hPa Calm   4.8 km/h 96 % 0.3 mm
01:22 6.1 °C 5.7 °C 1027.3 hPa Calm   4.8 km/h 97 % 0.3 mm
01:27 6.1 °C 5.7 °C 1027.3 hPa Calm   4.8 km/h 97 % 0.3 mm
01:32 6.2 °C 5.8 °C 1027.3 hPa SW 3.2 km/h 4.8 km/h 97 % 0.3 mm
01:37 6.4 °C 6.1 °C 1027.3 hPa WSW 3.2 km/h 4.8 km/h 98 % 0.0 mm
01:42 6.5 °C 6.2 °C 1027.3 hPa South 3.2 km/h 4.8 km/h 98 % 0.0 mm
01:47 6.5 °C 6.2 °C 1027.0 hPa WSW 1.6 km/h 4.8 km/h 98 % 0.0 mm
01:52 6.5 °C 6.2 °C 1027.3 hPa WSW 1.6 km/h 4.8 km/h 98 % 0.0 mm
01:57 6.7 °C 6.4 °C 1027.3 hPa SSW 1.6 km/h 6.4 km/h 98 % 0.0 mm
02:02 6.7 °C 6.4 °C 1027.3 hPa SW 1.6 km/h 6.4 km/h 98 % 0.0 mm
02:07 6.7 °C 6.4 °C 1027.3 hPa Calm   8.0 km/h 98 % 0.0 mm
02:12 6.7 °C 6.4 °C 1027.3 hPa SW 1.6 km/h 8.0 km/h 98 % 0.0 mm
02:17 6.7 °C 6.4 °C 1027.3 hPa SSE 1.6 km/h 4.8 km/h 98 % 0.0 mm
02:22 6.7 °C 6.4 °C 1027.3 hPa SW 3.2 km/h 4.8 km/h 98 % 0.0 mm
02:27 6.6 °C 6.3 °C 1027.0 hPa Calm   4.8 km/h 98 % 0.0 mm
02:32 6.5 °C 6.2 °C 1027.0 hPa SSW 4.8 km/h 4.8 km/h 98 % 0.0 mm
02:37 6.4 °C 6.1 °C 1027.0 hPa SW 3.2 km/h 8.0 km/h 98 % 0.0 mm
02:42 6.4 °C 6.1 °C 1027.0 hPa Calm   8.0 km/h 98 % 0.0 mm
02:47 6.4 °C 6.1 °C 1027.0 hPa SSW 1.6 km/h 6.4 km/h 98 % 0.0 mm
02:52 6.4 °C 6.1 °C 1027.0 hPa SW 1.6 km/h 6.4 km/h 98 % 0.0 mm
02:57 6.4 °C 6.1 °C 1027.0 hPa SW 3.2 km/h 6.4 km/h 98 % 0.0 mm
03:02 6.4 °C 6.1 °C 1027.0 hPa WSW 1.6 km/h 6.4 km/h 98 % 0.0 mm
03:07 6.3 °C 6.0 °C 1027.0 hPa SW 3.2 km/h 8.0 km/h 98 % 0.0 mm
03:12 6.3 °C 6.0 °C 1027.0 hPa WSW 1.6 km/h 8.0 km/h 98 % 0.0 mm
03:17 6.3 °C 6.0 °C 1027.0 hPa Calm   3.2 km/h 98 % 0.0 mm
03:27 6.3 °C 6.0 °C 1027.0 hPa Calm   3.2 km/h 98 % 0.0 mm
03:32 6.3 °C 6.0 °C 1026.6 hPa SW 1.6 km/h 3.2 km/h 98 % 0.0 mm
03:37 6.4 °C 6.1 °C 1026.6 hPa WSW 3.2 km/h 3.2 km/h 98 % 0.0 mm
03:42 6.4 °C 6.1 °C 1026.6 hPa SSW 1.6 km/h 3.2 km/h 98 % 0.0 mm
03:47 6.4 °C 6.1 °C 1026.6 hPa Calm   4.8 km/h 98 % 0.0 mm
03:52 6.4 °C 6.1 °C 1026.6 hPa Calm   4.8 km/h 98 % 0.0 mm
03:57 6.4 °C 6.1 °C 1026.6 hPa SW 1.6 km/h 4.8 km/h 98 % 0.0 mm
04:02 6.4 °C 6.1 °C 1026.6 hPa Calm   4.8 km/h 98 % 0.0 mm
04:07 6.4 °C 6.1 °C 1026.6 hPa Calm   3.2 km/h 98 % 0.0 mm
04:12 6.4 °C 6.1 °C 1026.3 hPa Calm   3.2 km/h 98 % 0.0 mm
04:17 6.4 °C 6.1 °C 1026.3 hPa Calm   3.2 km/h 98 % 0.0 mm
04:22 6.4 °C 6.1 °C 1026.3 hPa Calm   3.2 km/h 98 % 0.0 mm
04:27 6.4 °C 6.1 °C 1026.3 hPa SW 1.6 km/h 3.2 km/h 98 % 0.0 mm
04:32 6.4 °C 6.1 °C 1026.3 hPa West 1.6 km/h 3.2 km/h 98 % 0.0 mm
04:37 6.4 °C 6.1 °C 1026.3 hPa SW 1.6 km/h 3.2 km/h 98 % 0.0 mm
04:42 6.4 °C 6.1 °C 1026.3 hPa Calm   3.2 km/h 98 % 0.0 mm
04:47 6.3 °C 6.0 °C 1026.3 hPa Calm   3.2 km/h 98 % 0.0 mm
04:52 6.3 °C 6.0 °C 1026.3 hPa WSW 1.6 km/h 3.2 km/h 98 % 0.0 mm
05:02 6.4 °C 6.1 °C 1026.0 hPa West 1.6 km/h 3.2 km/h 98 % 0.0 mm
05:12 6.4 °C 6.1 °C 1025.6 hPa SW 1.6 km/h 6.4 km/h 98 % 0.0 mm
05:17 6.5 °C 6.2 °C 1025.6 hPa Calm   4.8 km/h 98 % 0.0 mm
05:22 6.5 °C 6.2 °C 1025.6 hPa WSW 3.2 km/h 4.8 km/h 98 % 0.0 mm
05:42 6.6 °C 6.3 °C 1025.3 hPa WSW 3.2 km/h 4.8 km/h 98 % 0.0 mm
05:52 6.6 °C 6.3 °C 1025.3 hPa SW 1.6 km/h 4.8 km/h 98 % 0.0 mm
05:57 6.6 °C 6.3 °C 1025.3 hPa WSW 3.2 km/h 6.4 km/h 98 % 0.0 mm
06:02 6.7 °C 6.4 °C 1025.3 hPa Calm   6.4 km/h 98 % 0.0 mm
06:12 6.7 °C 6.4 °C 1025.3 hPa Calm   4.8 km/h 98 % 0.0 mm
06:17 6.7 °C 6.4 °C 1025.3 hPa Calm   6.4 km/h 98 % 0.0 mm
06:22 6.8 °C 6.5 °C 1025.3 hPa WSW 1.6 km/h 6.4 km/h 98 % 0.0 mm
06:32 6.7 °C 6.4 °C 1025.3 hPa Calm   3.2 km/h 98 % 0.0 mm
06:42 6.7 °C 6.4 °C 1024.9 hPa Calm   3.2 km/h 98 % 0.0 mm
06:47 6.8 °C 6.5 °C 1024.9 hPa Calm   4.8 km/h 98 % 0.0 mm
06:52 6.8 °C 6.7 °C 1024.9 hPa Calm   4.8 km/h 99 % 0.0 mm
06:57 6.8 °C 6.7 °C 1024.9 hPa Calm   4.8 km/h 99 % 0.0 mm
07:02 6.8 °C 6.7 °C 1024.9 hPa Calm   4.8 km/h 99 % 0.0 mm
07:12 6.8 °C 6.7 °C 1024.9 hPa Calm   4.8 km/h 99 % 0.0 mm
07:17 6.8 °C 6.7 °C 1024.9 hPa Calm   3.2 km/h 99 % 0.0 mm
07:22 6.6 °C 6.3 °C 1025.3 hPa Calm   3.2 km/h 98 % 0.0 mm
07:32 6.2 °C 5.9 °C 1024.9 hPa Calm   1.6 km/h 98 % 0.0 mm
07:42 5.8 °C 5.5 °C 1024.9 hPa Calm     98 % 0.0 mm
07:52 5.7 °C 5.4 °C 1024.9 hPa Calm   1.6 km/h 98 % 0.0 mm
07:57 5.6 °C 5.3 °C 1024.9 hPa Calm   1.6 km/h 98 % 0.0 mm
08:02 5.5 °C 5.2 °C 1024.9 hPa WSW 1.6 km/h 1.6 km/h 98 % 0.0 mm
08:12 5.5 °C 5.2 °C 1025.3 hPa Calm   1.6 km/h 98 % 0.0 mm
08:22 5.4 °C 5.1 °C 1025.3 hPa Calm   1.6 km/h 98 % 0.0 mm
08:32 5.3 °C 5.0 °C 1025.3 hPa Calm   1.6 km/h 98 % 0.0 mm
08:42 5.4 °C 5.1 °C 1025.3 hPa Calm   1.6 km/h 98 % 0.0 mm
08:52 5.6 °C 5.3 °C 1025.3 hPa Calm   1.6 km/h 98 % 0.0 mm
08:57 5.6 °C 5.3 °C 1025.6 hPa Calm   1.6 km/h 98 % 0.0 mm
09:02 5.7 °C 5.4 °C 1025.3 hPa Calm   1.6 km/h 98 % 0.0 mm
09:07 5.7 °C 5.4 °C 1025.3 hPa Calm   1.6 km/h 98 % 0.0 mm
09:12 5.8 °C 5.7 °C 1025.3 hPa Calm   1.6 km/h 99 % 0.0 mm
09:17 5.8 °C 5.7 °C 1025.3 hPa Calm   1.6 km/h 99 % 0.0 mm
09:27 6.0 °C 5.9 °C 1025.3 hPa Calm   1.6 km/h 99 % 0.0 mm
09:32 6.1 °C 6.0 °C 1025.3 hPa Calm   1.6 km/h 99 % 0.0 mm
09:37 6.2 °C 6.1 °C 1025.3 hPa Calm   1.6 km/h 99 % 0.0 mm
09:42 6.3 °C 6.2 °C 1025.3 hPa Calm   1.6 km/h 99 % 0.0 mm
09:47 6.3 °C 6.2 °C 1025.3 hPa Calm   1.6 km/h 99 % 0.0 mm
09:52 6.3 °C 6.2 °C 1025.6 hPa Calm   1.6 km/h 99 % 0.0 mm
09:57 6.3 °C 6.2 °C 1025.6 hPa Calm   1.6 km/h 99 % 0.0 mm
10:02 6.4 °C 6.3 °C 1025.6 hPa Calm   1.6 km/h 99 % 0.0 mm
10:07 6.4 °C 6.3 °C 1025.6 hPa Calm     99 % 0.0 mm
10:12 6.5 °C 6.4 °C 1025.6 hPa Calm     99 % 0.0 mm
10:17 6.6 °C 6.5 °C 1025.6 hPa Calm     99 % 0.0 mm
10:22 6.7 °C 6.6 °C 1025.6 hPa Calm     99 % 0.0 mm
10:27 6.7 °C 6.6 °C 1025.6 hPa Calm   1.6 km/h 99 % 0.0 mm
10:32 6.8 °C 6.7 °C 1025.6 hPa Calm   1.6 km/h 99 % 0.0 mm
10:37 7.0 °C 6.9 °C 1025.3 hPa Calm   1.6 km/h 99 % 0.0 mm
10:42 7.2 °C 7.1 °C 1025.6 hPa Calm   1.6 km/h 99 % 0.0 mm
10:47 7.4 °C 7.3 °C 1025.6 hPa Calm     99 % 0.0 mm
10:52 7.6 °C 7.5 °C 1025.6 hPa Calm     99 % 0.0 mm
10:57 7.6 °C 7.5 °C 1025.6 hPa Calm     99 % 0.0 mm
11:02 7.6 °C 7.5 °C 1025.6 hPa Calm     99 % 0.0 mm
11:07 7.6 °C 7.5 °C 1025.6 hPa Calm     99 % 0.0 mm
11:12 7.7 °C 7.6 °C 1025.6 hPa Calm     99 % 0.0 mm
11:17 7.8 °C 7.7 °C 1025.6 hPa Calm     99 % 0.0 mm
11:22 7.9 °C 7.8 °C 1025.3 hPa Calm     99 % 0.0 mm
11:32 8.1 °C 8.0 °C 1025.3 hPa Calm   1.6 km/h 99 % 0.0 mm
11:37 8.3 °C 8.2 °C 1024.9 hPa Calm   1.6 km/h 99 % 0.0 mm
11:42 8.4 °C 8.3 °C 1024.9 hPa Calm   1.6 km/h 99 % 0.0 mm
11:47 8.6 °C 8.5 °C 1024.9 hPa Calm     99 % 0.0 mm
11:52 8.8 °C 8.7 °C 1024.9 hPa Calm     99 % 0.0 mm
11:57 8.9 °C 8.8 °C 1024.9 hPa Calm   1.6 km/h 99 % 0.0 mm
12:02 9.1 °C 9.0 °C 1024.9 hPa Calm   1.6 km/h 99 % 0.0 mm
12:07 9.1 °C 9.0 °C 1024.9 hPa West 1.6 km/h 1.6 km/h 99 % 0.0 mm
12:12 9.2 °C 9.1 °C 1024.6 hPa Calm   1.6 km/h 99 % 0.0 mm
12:17 9.3 °C 9.2 °C 1024.6 hPa Calm   1.6 km/h 99 % 0.0 mm
12:22 9.4 °C 9.3 °C 1024.3 hPa Calm   1.6 km/h 99 % 0.0 mm
12:32 9.4 °C 9.3 °C 1024.3 hPa Calm   1.6 km/h 99 % 0.0 mm
12:37 9.4 °C 9.3 °C 1024.3 hPa Calm   1.6 km/h 99 % 0.0 mm
12:42 9.6 °C 9.5 °C 1024.3 hPa Calm   3.2 km/h 99 % 0.0 mm
12:47 9.7 °C 9.6 °C 1023.9 hPa Calm   1.6 km/h 99 % 0.0 mm
12:52 9.8 °C 9.7 °C 1023.9 hPa Calm   1.6 km/h 99 % 0.0 mm
12:57 9.8 °C 9.7 °C 1023.9 hPa Calm   1.6 km/h 99 % 0.0 mm
13:02 9.9 °C 9.6 °C 1023.9 hPa Calm   1.6 km/h 98 % 0.0 mm
13:07 10.0 °C 9.7 °C 1023.9 hPa Calm   1.6 km/h 98 % 0.0 mm
13:12 10.1 °C 9.8 °C 1023.6 hPa Calm   1.6 km/h 98 % 0.0 mm
13:17 10.3 °C 10.0 °C 1023.6 hPa Calm   3.2 km/h 98 % 0.0 mm
13:22 10.4 °C 10.1 °C 1023.6 hPa Calm   3.2 km/h 98 % 0.0 mm
13:27 10.6 °C 10.3 °C 1023.2 hPa Calm   3.2 km/h 98 % 0.0 mm
13:32 10.6 °C 10.1 °C 1023.2 hPa WSW 1.6 km/h 3.2 km/h 97 % 0.0 mm
13:37 10.7 °C 10.2 °C 1023.2 hPa Calm   3.2 km/h 97 % 0.0 mm
13:42 10.8 °C 10.2 °C 1023.2 hPa SW 1.6 km/h 3.2 km/h 96 % 0.0 mm
13:47 10.9 °C 10.3 °C 1023.2 hPa Calm   3.2 km/h 96 % 0.0 mm
13:52 11.1 °C 10.3 °C 1023.2 hPa WSW 3.2 km/h 3.2 km/h 95 % 0.0 mm
13:57 11.2 °C 10.3 °C 1023.2 hPa Calm   4.8 km/h 94 % 0.0 mm
14:02 11.3 °C 10.4 °C 1022.9 hPa SSW 3.2 km/h 4.8 km/h 94 % 0.0 mm
14:07 11.4 °C 10.3 °C 1022.9 hPa South 1.6 km/h 4.8 km/h 93 % 0.0 mm
14:12 11.4 °C 10.3 °C 1022.9 hPa WSW 3.2 km/h 4.8 km/h 93 % 0.0 mm
14:17 11.4 °C 10.3 °C 1022.9 hPa WSW 1.6 km/h 4.8 km/h 93 % 0.0 mm
14:22 11.4 °C 10.1 °C 1022.9 hPa SW 3.2 km/h 4.8 km/h 92 % 0.0 mm
14:32 11.6 °C 10.3 °C 1022.6 hPa SW 1.6 km/h 6.4 km/h 92 % 0.0 mm
14:37 11.6 °C 10.2 °C 1022.6 hPa WSW 1.6 km/h 4.8 km/h 91 % 0.0 mm
14:42 11.6 °C 10.2 °C 1022.6 hPa WSW 3.2 km/h 4.8 km/h 91 % 0.0 mm
14:47 11.7 °C 10.4 °C 1022.6 hPa SW 1.6 km/h 4.8 km/h 92 % 0.0 mm
14:52 11.8 °C 10.4 °C 1022.2 hPa SW 1.6 km/h 4.8 km/h 91 % 0.0 mm
14:57 11.9 °C 10.5 °C 1022.2 hPa WSW 1.6 km/h 4.8 km/h 91 % 0.0 mm
15:02 12.1 °C 10.7 °C 1022.2 hPa SW 1.6 km/h 4.8 km/h 91 % 0.0 mm
15:07 12.2 °C 10.8 °C 1022.2 hPa WSW 3.2 km/h 6.4 km/h 91 % 0.0 mm
15:12 12.2 °C 10.8 °C 1022.2 hPa SW 3.2 km/h 6.4 km/h 91 % 0.0 mm
15:17 12.2 °C 10.6 °C 1021.9 hPa SSW 3.2 km/h 6.4 km/h 90 % 0.0 mm
15:22 12.2 °C 10.8 °C 1021.9 hPa Calm   6.4 km/h 91 % 0.0 mm
15:27 12.1 °C 10.7 °C 1021.9 hPa SW 3.2 km/h 8.0 km/h 91 % 0.0 mm
15:32 12.0 °C 10.4 °C 1021.9 hPa SSW 1.6 km/h 8.0 km/h 90 % 0.0 mm
15:37 11.9 °C 10.5 °C 1021.9 hPa SSW 3.2 km/h 6.4 km/h 91 % 0.0 mm
15:42 11.9 °C 10.5 °C 1021.9 hPa SW 1.6 km/h 6.4 km/h 91 % 0.0 mm
15:47 11.8 °C 10.4 °C 1021.9 hPa WSW 1.6 km/h 6.4 km/h 91 % 0.0 mm
15:52 11.9 °C 10.5 °C 1021.9 hPa SE 3.2 km/h 6.4 km/h 91 % 0.0 mm
15:57 11.8 °C 10.4 °C 1021.9 hPa West 1.6 km/h 6.4 km/h 91 % 0.0 mm
16:02 11.8 °C 10.4 °C 1021.9 hPa Calm   6.4 km/h 91 % 0.0 mm
16:07 11.8 °C 10.4 °C 1021.9 hPa WSW 1.6 km/h 6.4 km/h 91 % 0.0 mm
16:12 11.7 °C 10.4 °C 1021.9 hPa SW 3.2 km/h 6.4 km/h 92 % 0.0 mm
16:17 11.7 °C 10.4 °C 1021.9 hPa WSW 1.6 km/h 6.4 km/h 92 % 0.0 mm
16:22 11.7 °C 10.3 °C 1021.9 hPa Calm   6.4 km/h 91 % 0.0 mm
16:27 11.8 °C 10.4 °C 1021.9 hPa WSW 4.8 km/h 4.8 km/h 91 % 0.0 mm
16:32 11.8 °C 10.4 °C 1021.9 hPa WSW 4.8 km/h 4.8 km/h 91 % 0.0 mm
16:37 11.8 °C 10.2 °C 1021.9 hPa WSW 1.6 km/h 6.4 km/h 90 % 0.0 mm
16:42 11.8 °C 10.4 °C 1021.9 hPa SW 3.2 km/h 6.4 km/h 91 % 0.0 mm
16:47 11.7 °C 10.3 °C 1021.9 hPa SW 3.2 km/h 6.4 km/h 91 % 0.0 mm
16:57 11.7 °C 10.3 °C 1021.9 hPa SW 1.6 km/h 4.8 km/h 91 % 0.0 mm
17:02 11.7 °C 10.3 °C 1021.6 hPa SE 1.6 km/h 4.8 km/h 91 % 0.0 mm
17:07 11.6 °C 10.2 °C 1021.6 hPa SSW 1.6 km/h 6.4 km/h 91 % 0.0 mm
17:12 11.6 °C 10.2 °C 1021.6 hPa WSW 3.2 km/h 6.4 km/h 91 % 0.0 mm
17:17 11.6 °C 10.0 °C 1021.6 hPa WSW 1.6 km/h 6.4 km/h 90 % 0.0 mm
17:22 11.4 °C 10.0 °C 1021.6 hPa Calm   6.4 km/h 91 % 0.0 mm
17:32 11.1 °C 9.8 °C 1021.6 hPa Calm   6.4 km/h 92 % 0.0 mm
17:37 10.8 °C 9.6 °C 1021.6 hPa Calm   1.6 km/h 92 % 0.0 mm
17:42 10.7 °C 9.6 °C 1021.6 hPa Calm   1.6 km/h 93 % 0.0 mm
17:47 10.6 °C 9.5 °C 1021.6 hPa Calm   1.6 km/h 93 % 0.0 mm
17:52 10.5 °C 9.4 °C 1021.6 hPa Calm   1.6 km/h 93 % 0.0 mm
17:57 10.4 °C 9.5 °C 1021.6 hPa Calm   1.6 km/h 94 % 0.0 mm
18:02 10.4 °C 9.5 °C 1021.6 hPa WSW 1.6 km/h 1.6 km/h 94 % 0.0 mm
18:07 10.5 °C 9.6 °C 1021.6 hPa Calm   3.2 km/h 94 % 0.0 mm
18:12 10.5 °C 9.4 °C 1021.9 hPa Calm   3.2 km/h 93 % 0.0 mm
18:17 10.3 °C 9.2 °C 1021.6 hPa Calm   3.2 km/h 93 % 0.0 mm
18:22 10.2 °C 9.3 °C 1021.9 hPa Calm   3.2 km/h 94 % 0.0 mm
18:32 9.9 °C 9.0 °C 1021.9 hPa Calm   1.6 km/h 94 % 0.0 mm
18:37 9.9 °C 9.1 °C 1021.9 hPa SW 1.6 km/h 1.6 km/h 95 % 0.0 mm
18:42 9.9 °C 9.1 °C 1021.9 hPa Calm   1.6 km/h 95 % 0.0 mm
18:47 9.8 °C 9.0 °C 1021.9 hPa Calm   1.6 km/h 95 % 0.0 mm
18:52 9.8 °C 9.0 °C 1021.9 hPa Calm   1.6 km/h 95 % 0.0 mm
18:57 9.9 °C 9.1 °C 1021.9 hPa Calm   3.2 km/h 95 % 0.0 mm
19:02 10.3 °C 9.4 °C 1021.6 hPa West 6.4 km/h 6.4 km/h 94 % 0.0 mm
19:07 10.6 °C 9.5 °C 1021.9 hPa SW 6.4 km/h 11.3 km/h 93 % 0.0 mm
19:12 10.8 °C 9.6 °C 1021.9 hPa SW 4.8 km/h 11.3 km/h 92 % 0.0 mm
19:17 10.9 °C 9.3 °C 1021.9 hPa SW 3.2 km/h 11.3 km/h 90 % 0.0 mm
19:22 11.1 °C 9.4 °C 1021.9 hPa SW 4.8 km/h 11.3 km/h 89 % 0.0 mm
19:27 11.2 °C 9.5 °C 1021.9 hPa SW 6.4 km/h 12.9 km/h 89 % 0.0 mm
19:32 11.3 °C 9.4 °C 1021.9 hPa WSW 8.0 km/h 12.9 km/h 88 % 0.0 mm
19:37 11.3 °C 9.4 °C 1021.9 hPa South 4.8 km/h 12.9 km/h 88 % 0.0 mm
19:42 11.3 °C 9.4 °C 1021.9 hPa SW 4.8 km/h 12.9 km/h 88 % 0.0 mm
19:47 11.2 °C 9.5 °C 1021.9 hPa SW 6.4 km/h 12.9 km/h 89 % 0.0 mm
19:52 11.1 °C 9.4 °C 1021.9 hPa SW 6.4 km/h 12.9 km/h 89 % 0.0 mm
19:57 11.1 °C 9.4 °C 1021.9 hPa SW 8.0 km/h 9.7 km/h 89 % 0.0 mm
20:02 11.0 °C 9.3 °C 1021.9 hPa WSW 3.2 km/h 9.7 km/h 89 % 0.0 mm
20:07 11.1 °C 9.4 °C 1021.9 hPa South 3.2 km/h 11.3 km/h 89 % 0.0 mm
20:12 11.1 °C 9.4 °C 1021.9 hPa SW 8.0 km/h 11.3 km/h 89 % 0.0 mm
20:17 11.1 °C 9.2 °C 1021.9 hPa SW 6.4 km/h 9.7 km/h 88 % 0.0 mm
20:22 11.0 °C 9.1 °C 1021.9 hPa SW 4.8 km/h 9.7 km/h 88 % 0.0 mm
20:27 11.0 °C 9.3 °C 1021.9 hPa SW 3.2 km/h 9.7 km/h 89 % 0.0 mm
20:32 10.9 °C 9.0 °C 1021.6 hPa SSW 3.2 km/h 9.7 km/h 88 % 0.0 mm
20:37 10.8 °C 9.1 °C 1021.6 hPa WSW 1.6 km/h 11.3 km/h 89 % 0.0 mm
20:42 10.7 °C 9.0 °C 1021.6 hPa SW 3.2 km/h 11.3 km/h 89 % 0.0 mm
20:47 10.6 °C 8.9 °C 1021.9 hPa WSW 4.8 km/h 11.3 km/h 89 % 0.0 mm
20:52 10.7 °C 9.0 °C 1021.6 hPa WSW 3.2 km/h 11.3 km/h 89 % 0.0 mm
20:57 10.7 °C 9.0 °C 1021.6 hPa SW 4.8 km/h 8.0 km/h 89 % 0.0 mm
21:02 10.6 °C 8.9 °C 1021.6 hPa WSW 3.2 km/h 8.0 km/h 89 % 0.0 mm
21:07 10.3 °C 8.7 °C 1021.6 hPa SSW 1.6 km/h 8.0 km/h 90 % 0.0 mm
21:12 10.0 °C 8.6 °C 1021.6 hPa SW 1.6 km/h 8.0 km/h 91 % 0.0 mm
21:17 9.7 °C 8.5 °C 1021.6 hPa SW 3.2 km/h 6.4 km/h 92 % 0.0 mm
21:22 9.6 °C 8.4 °C 1021.6 hPa SW 3.2 km/h 6.4 km/h 92 % 0.0 mm
21:27 9.6 °C 8.4 °C 1021.6 hPa SW 4.8 km/h 4.8 km/h 92 % 0.0 mm
21:32 9.8 °C 8.4 °C 1021.6 hPa South 3.2 km/h 4.8 km/h 91 % 0.0 mm
21:37 9.9 °C 8.3 °C 1021.6 hPa Calm   8.0 km/h 90 % 0.0 mm
21:42 9.8 °C 8.2 °C 1021.6 hPa Calm   8.0 km/h 90 % 0.0 mm
21:47 9.6 °C 8.2 °C 1021.6 hPa Calm   4.8 km/h 91 % 0.0 mm
21:52 9.4 °C 8.2 °C 1021.6 hPa Calm   4.8 km/h 92 % 0.0 mm
21:57 9.3 °C 8.1 °C 1021.6 hPa Calm   3.2 km/h 92 % 0.0 mm
22:02 9.3 °C 8.2 °C 1021.6 hPa WSW 1.6 km/h 3.2 km/h 93 % 0.0 mm
22:07 9.3 °C 8.1 °C 1021.9 hPa SE 1.6 km/h 3.2 km/h 92 % 0.0 mm
22:12 9.5 °C 8.1 °C 1021.9 hPa SW 4.8 km/h 4.8 km/h 91 % 0.0 mm
22:17 9.7 °C 8.3 °C 1021.9 hPa Calm   8.0 km/h 91 % 0.0 mm
22:22 9.9 °C 8.2 °C 1021.9 hPa WSW 3.2 km/h 8.0 km/h 89 % 0.0 mm
22:27 10.1 °C 8.4 °C 1021.9 hPa SSE 3.2 km/h 9.7 km/h 89 % 0.0 mm
22:32 10.2 °C 8.3 °C 1021.6 hPa SW 4.8 km/h 9.7 km/h 88 % 0.0 mm
22:37 10.2 °C 8.3 °C 1021.6 hPa SSW 1.6 km/h 8.0 km/h 88 % 0.0 mm
22:42 10.3 °C 8.2 °C 1021.6 hPa WSW 8.0 km/h 8.0 km/h 87 % 0.0 mm
22:47 10.4 °C 8.2 °C 1021.6 hPa SW 4.8 km/h 8.0 km/h 86 % 0.0 mm
22:52 10.4 °C 8.2 °C 1021.9 hPa SW 1.6 km/h 8.0 km/h 86 % 0.0 mm
22:57 10.2 °C 8.1 °C 1021.9 hPa WSW 1.6 km/h 12.9 km/h 87 % 0.0 mm
23:02 9.8 °C 8.1 °C 1021.6 hPa WSW 1.6 km/h 12.9 km/h 89 % 0.0 mm
23:07 9.5 °C 7.9 °C 1021.9 hPa WSW 1.6 km/h 4.8 km/h 90 % 0.0 mm
23:12 9.3 °C 7.7 °C 1021.6 hPa Calm   4.8 km/h 90 % 0.0 mm
23:17 9.2 °C 7.8 °C 1021.9 hPa SW 1.6 km/h 4.8 km/h 91 % 0.0 mm
23:27 9.1 °C 7.7 °C 1021.9 hPa SW 3.2 km/h 4.8 km/h 91 % 0.0 mm
23:32 9.2 °C 7.8 °C 1021.9 hPa WSW 1.6 km/h 4.8 km/h 91 % 0.0 mm
23:37 9.4 °C 7.7 °C 1021.9 hPa SW 1.6 km/h 6.4 km/h 89 % 0.0 mm
23:42 9.7 °C 7.6 °C 1021.9 hPa WSW 3.2 km/h 6.4 km/h 87 % 0.0 mm
23:47 9.8 °C 7.7 °C 1021.9 hPa SW 6.4 km/h 8.0 km/h 87 % 0.0 mm
23:52 9.5 °C 7.6 °C 1021.9 hPa WSW 1.6 km/h 8.0 km/h 88 % 0.0 mm
23:57 9.3 °C 7.6 °C 1021.9 hPa WSW 3.2 km/h 6.4 km/h 89 % 0.0 mm
Meteo18
Compliments of Weather Underground - 4 mb

Script developed by  Jim McMurry - jmcmurry@mwt.net Adapted for the template by  Wim van der Kuil - Leuven-Template.eu

You find our weather info also at:

European Weather Network

Weather Underground

Equipment we use:

Weather-station
Davis Vue

Weather-program
Meteohub

Weather-server
Raspberry PI 2 B+

Provider
1 and 1

Davis Vue

Meteohub

Raspberry PI 2 B+

1 and 1